sensor_id;sensor_type;location;lat;lon;timestamp;temperature;humidity
40291;DHT22;26000;48.304;13.626;2022-07-04T00:01:05;20.40;99.90
40291;DHT22;26000;48.304;13.626;2022-07-04T00:03:30;20.40;99.90
40291;DHT22;26000;48.304;13.626;2022-07-04T00:05:56;20.40;99.90
40291;DHT22;26000;48.304;13.626;2022-07-04T00:08:21;20.40;99.90
40291;DHT22;26000;48.304;13.626;2022-07-04T00:10:47;20.50;99.90
40291;DHT22;26000;48.304;13.626;2022-07-04T00:13:13;20.60;99.90
40291;DHT22;26000;48.304;13.626;2022-07-04T00:15:38;20.50;99.90
40291;DHT22;26000;48.304;13.626;2022-07-04T00:18:04;20.40;99.90
40291;DHT22;26000;48.304;13.626;2022-07-04T00:20:30;20.30;99.90
40291;DHT22;26000;48.304;13.626;2022-07-04T00:22:55;20.40;99.90
40291;DHT22;26000;48.304;13.626;2022-07-04T00:25:21;20.30;99.90
40291;DHT22;26000;48.304;13.626;2022-07-04T00:27:47;20.30;99.90
40291;DHT22;26000;48.304;13.626;2022-07-04T00:30:12;20.40;99.90
40291;DHT22;26000;48.304;13.626;2022-07-04T00:32:38;20.30;99.90
40291;DHT22;26000;48.304;13.626;2022-07-04T00:35:05;20.30;99.90
40291;DHT22;26000;48.304;13.626;2022-07-04T00:37:31;20.30;99.90
40291;DHT22;26000;48.304;13.626;2022-07-04T00:39:56;20.30;99.90
40291;DHT22;26000;48.304;13.626;2022-07-04T00:42:22;20.30;99.90
40291;DHT22;26000;48.304;13.626;2022-07-04T00:44:48;20.40;99.90
40291;DHT22;26000;48.304;13.626;2022-07-04T00:47:13;20.30;99.90
40291;DHT22;26000;48.304;13.626;2022-07-04T00:49:39;20.30;99.90
40291;DHT22;26000;48.304;13.626;2022-07-04T00:52:06;20.30;99.90
40291;DHT22;26000;48.304;13.626;2022-07-04T00:54:32;20.30;99.90
40291;DHT22;26000;48.304;13.626;2022-07-04T00:56:58;20.30;99.90
40291;DHT22;26000;48.304;13.626;2022-07-04T00:59:25;20.40;99.90
40291;DHT22;26000;48.304;13.626;2022-07-04T01:01:50;20.40;99.90
40291;DHT22;26000;48.304;13.626;2022-07-04T01:04:16;20.40;99.90
40291;DHT22;26000;48.304;13.626;2022-07-04T01:06:43;20.40;99.90
40291;DHT22;26000;48.304;13.626;2022-07-04T01:09:08;20.30;99.90
40291;DHT22;26000;48.304;13.626;2022-07-04T01:11:35;20.20;99.90
40291;DHT22;26000;48.304;13.626;2022-07-04T01:14:00;20.30;99.90
40291;DHT22;26000;48.304;13.626;2022-07-04T01:16:26;20.30;99.90
40291;DHT22;26000;48.304;13.626;2022-07-04T01:18:53;20.40;99.90
40291;DHT22;26000;48.304;13.626;2022-07-04T01:21:19;20.40;99.90
40291;DHT22;26000;48.304;13.626;2022-07-04T01:23:45;20.30;99.90
40291;DHT22;26000;48.304;13.626;2022-07-04T01:26:11;20.20;99.90
40291;DHT22;26000;48.304;13.626;2022-07-04T01:28:37;20.20;99.90
40291;DHT22;26000;48.304;13.626;2022-07-04T01:31:03;20.10;99.90
40291;DHT22;26000;48.304;13.626;2022-07-04T01:33:29;20.00;99.90
40291;DHT22;26000;48.304;13.626;2022-07-04T01:35:55;20.00;99.90
40291;DHT22;26000;48.304;13.626;2022-07-04T01:38:21;20.00;99.90
40291;DHT22;26000;48.304;13.626;2022-07-04T01:40:47;20.10;99.90
40291;DHT22;26000;48.304;13.626;2022-07-04T01:43:13;20.10;99.90
40291;DHT22;26000;48.304;13.626;2022-07-04T01:45:38;20.10;99.90
40291;DHT22;26000;48.304;13.626;2022-07-04T01:48:09;20.00;99.90
40291;DHT22;26000;48.304;13.626;2022-07-04T01:50:35;20.00;99.90
40291;DHT22;26000;48.304;13.626;2022-07-04T01:53:01;19.90;99.90
40291;DHT22;26000;48.304;13.626;2022-07-04T01:55:28;19.80;99.90
40291;DHT22;26000;48.304;13.626;2022-07-04T01:57:53;19.80;99.90
40291;DHT22;26000;48.304;13.626;2022-07-04T02:00:19;19.90;99.90
40291;DHT22;26000;48.304;13.626;2022-07-04T02:03:03;19.90;99.90
40291;DHT22;26000;48.304;13.626;2022-07-04T02:05:29;19.90;99.90
40291;DHT22;26000;48.304;13.626;2022-07-04T02:07:55;19.90;99.90
40291;DHT22;26000;48.304;13.626;2022-07-04T02:10:21;20.00;99.90
40291;DHT22;26000;48.304;13.626;2022-07-04T02:12:47;20.10;99.90
40291;DHT22;26000;48.304;13.626;2022-07-04T02:15:38;20.20;99.90
40291;DHT22;26000;48.304;13.626;2022-07-04T02:18:05;20.10;99.90
40291;DHT22;26000;48.304;13.626;2022-07-04T02:20:31;20.10;99.90
40291;DHT22;26000;48.304;13.626;2022-07-04T02:22:57;20.10;99.90
40291;DHT22;26000;48.304;13.626;2022-07-04T02:25:24;20.00;99.90
40291;DHT22;26000;48.304;13.626;2022-07-04T02:27:49;20.00;99.90
40291;DHT22;26000;48.304;13.626;2022-07-04T02:30:15;20.00;99.90
40291;DHT22;26000;48.304;13.626;2022-07-04T02:32:41;20.00;99.90
40291;DHT22;26000;48.304;13.626;2022-07-04T02:35:07;20.10;99.90
40291;DHT22;26000;48.304;13.626;2022-07-04T02:37:33;20.00;99.90
40291;DHT22;26000;48.304;13.626;2022-07-04T02:39:59;19.90;99.90
40291;DHT22;26000;48.304;13.626;2022-07-04T02:42:29;20.00;99.90
40291;DHT22;26000;48.304;13.626;2022-07-04T02:44:55;19.90;99.90
40291;DHT22;26000;48.304;13.626;2022-07-04T02:47:21;20.10;99.90
40291;DHT22;26000;48.304;13.626;2022-07-04T02:49:46;20.10;99.90
40291;DHT22;26000;48.304;13.626;2022-07-04T02:52:12;20.20;99.90
40291;DHT22;26000;48.304;13.626;2022-07-04T02:54:37;20.20;99.90
40291;DHT22;26000;48.304;13.626;2022-07-04T02:57:03;20.20;99.90
40291;DHT22;26000;48.304;13.626;2022-07-04T02:59:29;20.30;99.90
40291;DHT22;26000;48.304;13.626;2022-07-04T03:01:54;20.30;99.90
40291;DHT22;26000;48.304;13.626;2022-07-04T03:04:20;20.30;99.90
40291;DHT22;26000;48.304;13.626;2022-07-04T03:06:46;20.40;99.90
40291;DHT22;26000;48.304;13.626;2022-07-04T03:09:11;20.50;99.90
40291;DHT22;26000;48.304;13.626;2022-07-04T03:11:37;20.50;99.90
40291;DHT22;26000;48.304;13.626;2022-07-04T03:14:02;20.60;99.90
40291;DHT22;26000;48.304;13.626;2022-07-04T03:16:28;20.60;99.90
40291;DHT22;26000;48.304;13.626;2022-07-04T03:18:54;20.70;99.90
40291;DHT22;26000;48.304;13.626;2022-07-04T03:21:19;20.80;99.90
40291;DHT22;26000;48.304;13.626;2022-07-04T03:23:45;20.90;99.90
40291;DHT22;26000;48.304;13.626;2022-07-04T03:26:32;20.80;99.90
40291;DHT22;26000;48.304;13.626;2022-07-04T03:28:59;20.90;99.90
40291;DHT22;26000;48.304;13.626;2022-07-04T03:31:26;20.80;99.90
40291;DHT22;26000;48.304;13.626;2022-07-04T03:33:53;20.80;99.90
40291;DHT22;26000;48.304;13.626;2022-07-04T03:36:18;20.90;99.90
40291;DHT22;26000;48.304;13.626;2022-07-04T03:38:44;20.90;99.90
40291;DHT22;26000;48.304;13.626;2022-07-04T03:41:10;20.90;99.90
40291;DHT22;26000;48.304;13.626;2022-07-04T03:43:36;21.00;99.90
40291;DHT22;26000;48.304;13.626;2022-07-04T03:46:02;21.00;99.90
40291;DHT22;26000;48.304;13.626;2022-07-04T03:48:28;21.20;99.90
40291;DHT22;26000;48.304;13.626;2022-07-04T03:50:54;21.10;99.90
40291;DHT22;26000;48.304;13.626;2022-07-04T03:53:20;21.00;99.90
40291;DHT22;26000;48.304;13.626;2022-07-04T03:55:47;21.00;99.90
40291;DHT22;26000;48.304;13.626;2022-07-04T03:58:13;21.00;99.90
40291;DHT22;26000;48.304;13.626;2022-07-04T04:00:38;21.00;99.90
40291;DHT22;26000;48.304;13.626;2022-07-04T04:03:04;21.00;99.90
40291;DHT22;26000;48.304;13.626;2022-07-04T04:05:50;21.00;99.90
40291;DHT22;26000;48.304;13.626;2022-07-04T04:08:15;21.00;99.90
40291;DHT22;26000;48.304;13.626;2022-07-04T04:10:41;21.00;99.90
40291;DHT22;26000;48.304;13.626;2022-07-04T04:13:08;21.00;99.90
40291;DHT22;26000;48.304;13.626;2022-07-04T04:15:33;21.10;99.90
40291;DHT22;26000;48.304;13.626;2022-07-04T04:17:59;21.00;99.90
40291;DHT22;26000;48.304;13.626;2022-07-04T04:20:24;21.00;99.90
40291;DHT22;26000;48.304;13.626;2022-07-04T04:22:50;21.10;99.90
40291;DHT22;26000;48.304;13.626;2022-07-04T04:25:17;21.00;99.90
40291;DHT22;26000;48.304;13.626;2022-07-04T04:27:43;21.10;99.90
40291;DHT22;26000;48.304;13.626;2022-07-04T04:30:09;21.10;99.90
40291;DHT22;26000;48.304;13.626;2022-07-04T04:32:35;21.30;99.90
40291;DHT22;26000;48.304;13.626;2022-07-04T04:35:00;21.20;99.90
40291;DHT22;26000;48.304;13.626;2022-07-04T04:37:26;21.20;99.90
40291;DHT22;26000;48.304;13.626;2022-07-04T04:39:52;21.10;99.90
40291;DHT22;26000;48.304;13.626;2022-07-04T04:42:17;21.00;99.90
40291;DHT22;26000;48.304;13.626;2022-07-04T04:44:43;21.00;99.90
40291;DHT22;26000;48.304;13.626;2022-07-04T04:47:09;21.00;99.90
40291;DHT22;26000;48.304;13.626;2022-07-04T04:49:34;21.00;99.90
40291;DHT22;26000;48.304;13.626;2022-07-04T04:52:00;21.00;99.90
40291;DHT22;26000;48.304;13.626;2022-07-04T04:54:26;21.00;99.90
40291;DHT22;26000;48.304;13.626;2022-07-04T04:56:51;20.90;99.90
40291;DHT22;26000;48.304;13.626;2022-07-04T04:59:17;20.90;99.90
40291;DHT22;26000;48.304;13.626;2022-07-04T05:01:43;20.80;99.90
40291;DHT22;26000;48.304;13.626;2022-07-04T05:04:08;20.80;99.90
40291;DHT22;26000;48.304;13.626;2022-07-04T05:06:34;20.70;99.90
40291;DHT22;26000;48.304;13.626;2022-07-04T05:09:00;20.70;99.90
40291;DHT22;26000;48.304;13.626;2022-07-04T05:11:25;20.70;99.90
40291;DHT22;26000;48.304;13.626;2022-07-04T05:13:51;20.80;99.90
40291;DHT22;26000;48.304;13.626;2022-07-04T05:16:17;20.90;99.90
40291;DHT22;26000;48.304;13.626;2022-07-04T05:18:43;20.90;99.90
40291;DHT22;26000;48.304;13.626;2022-07-04T05:21:08;20.90;99.90
40291;DHT22;26000;48.304;13.626;2022-07-04T05:23:34;20.90;99.90
40291;DHT22;26000;48.304;13.626;2022-07-04T05:25:59;20.70;99.90
40291;DHT22;26000;48.304;13.626;2022-07-04T05:28:25;20.50;99.90
40291;DHT22;26000;48.304;13.626;2022-07-04T05:30:51;20.50;99.90
40291;DHT22;26000;48.304;13.626;2022-07-04T05:33:16;20.40;99.90
40291;DHT22;26000;48.304;13.626;2022-07-04T05:35:43;20.40;99.90
40291;DHT22;26000;48.304;13.626;2022-07-04T05:38:08;20.50;99.90
40291;DHT22;26000;48.304;13.626;2022-07-04T05:40:34;20.40;99.90
40291;DHT22;26000;48.304;13.626;2022-07-04T05:43:00;20.40;99.90
40291;DHT22;26000;48.304;13.626;2022-07-04T05:45:25;20.40;99.90
40291;DHT22;26000;48.304;13.626;2022-07-04T05:47:51;20.40;99.90
40291;DHT22;26000;48.304;13.626;2022-07-04T05:50:17;20.50;99.90
40291;DHT22;26000;48.304;13.626;2022-07-04T05:52:42;20.50;99.90
40291;DHT22;26000;48.304;13.626;2022-07-04T05:55:08;20.50;99.90
40291;DHT22;26000;48.304;13.626;2022-07-04T05:57:34;20.60;99.90
40291;DHT22;26000;48.304;13.626;2022-07-04T06:00:01;20.60;99.90
40291;DHT22;26000;48.304;13.626;2022-07-04T06:02:27;20.70;99.90
40291;DHT22;26000;48.304;13.626;2022-07-04T06:04:53;20.70;99.90
40291;DHT22;26000;48.304;13.626;2022-07-04T06:07:19;20.70;99.90
40291;DHT22;26000;48.304;13.626;2022-07-04T06:09:44;20.70;99.90
40291;DHT22;26000;48.304;13.626;2022-07-04T06:12:10;20.70;99.90
40291;DHT22;26000;48.304;13.626;2022-07-04T06:14:36;20.80;99.90
40291;DHT22;26000;48.304;13.626;2022-07-04T06:17:02;20.90;99.90
40291;DHT22;26000;48.304;13.626;2022-07-04T06:19:27;20.90;99.90
40291;DHT22;26000;48.304;13.626;2022-07-04T06:21:53;21.00;99.90
40291;DHT22;26000;48.304;13.626;2022-07-04T06:24:19;21.50;99.90
40291;DHT22;26000;48.304;13.626;2022-07-04T06:26:44;21.90;99.90
40291;DHT22;26000;48.304;13.626;2022-07-04T06:29:10;22.20;99.90
40291;DHT22;26000;48.304;13.626;2022-07-04T06:31:35;22.50;99.90
40291;DHT22;26000;48.304;13.626;2022-07-04T06:34:01;23.10;99.90
40291;DHT22;26000;48.304;13.626;2022-07-04T06:36:45;23.60;99.90
40291;DHT22;26000;48.304;13.626;2022-07-04T06:39:11;23.70;99.90
40291;DHT22;26000;48.304;13.626;2022-07-04T06:41:36;24.10;99.90
40291;DHT22;26000;48.304;13.626;2022-07-04T06:44:03;24.60;99.90
40291;DHT22;26000;48.304;13.626;2022-07-04T06:46:29;25.10;99.90
40291;DHT22;26000;48.304;13.626;2022-07-04T06:48:55;25.00;99.90
40291;DHT22;26000;48.304;13.626;2022-07-04T06:51:22;25.10;99.90
40291;DHT22;26000;48.304;13.626;2022-07-04T06:53:48;25.10;99.90
40291;DHT22;26000;48.304;13.626;2022-07-04T06:56:14;25.30;99.90
40291;DHT22;26000;48.304;13.626;2022-07-04T06:58:39;25.60;99.90
40291;DHT22;26000;48.304;13.626;2022-07-04T07:01:05;26.10;99.90
40291;DHT22;26000;48.304;13.626;2022-07-04T07:03:31;26.10;99.90
40291;DHT22;26000;48.304;13.626;2022-07-04T07:05:57;25.90;99.90
40291;DHT22;26000;48.304;13.626;2022-07-04T07:08:23;25.50;99.90
40291;DHT22;26000;48.304;13.626;2022-07-04T07:10:49;25.20;99.90
40291;DHT22;26000;48.304;13.626;2022-07-04T07:13:14;25.00;99.90
40291;DHT22;26000;48.304;13.626;2022-07-04T07:15:40;24.80;99.90
40291;DHT22;26000;48.304;13.626;2022-07-04T07:18:06;24.70;99.90
40291;DHT22;26000;48.304;13.626;2022-07-04T07:20:32;24.70;99.90
40291;DHT22;26000;48.304;13.626;2022-07-04T07:22:58;24.60;99.90
40291;DHT22;26000;48.304;13.626;2022-07-04T07:25:24;24.50;99.90
40291;DHT22;26000;48.304;13.626;2022-07-04T07:27:49;24.50;99.90
40291;DHT22;26000;48.304;13.626;2022-07-04T07:30:15;24.50;99.90
40291;DHT22;26000;48.304;13.626;2022-07-04T07:32:41;24.50;99.90
40291;DHT22;26000;48.304;13.626;2022-07-04T07:35:06;24.40;99.90
40291;DHT22;26000;48.304;13.626;2022-07-04T07:37:32;24.40;99.90
40291;DHT22;26000;48.304;13.626;2022-07-04T07:39:58;24.40;99.90
40291;DHT22;26000;48.304;13.626;2022-07-04T07:42:24;24.50;99.90
40291;DHT22;26000;48.304;13.626;2022-07-04T07:44:50;24.50;99.90
40291;DHT22;26000;48.304;13.626;2022-07-04T07:47:16;24.60;99.90
40291;DHT22;26000;48.304;13.626;2022-07-04T07:49:43;24.50;99.90
40291;DHT22;26000;48.304;13.626;2022-07-04T07:52:09;24.40;99.90
40291;DHT22;26000;48.304;13.626;2022-07-04T07:54:35;24.40;99.90
40291;DHT22;26000;48.304;13.626;2022-07-04T07:57:01;24.40;99.90
40291;DHT22;26000;48.304;13.626;2022-07-04T07:59:26;24.40;99.90
40291;DHT22;26000;48.304;13.626;2022-07-04T08:01:52;24.50;99.90
40291;DHT22;26000;48.304;13.626;2022-07-04T08:04:18;24.40;99.90
40291;DHT22;26000;48.304;13.626;2022-07-04T08:07:08;24.50;99.90
40291;DHT22;26000;48.304;13.626;2022-07-04T08:09:34;24.50;99.90
40291;DHT22;26000;48.304;13.626;2022-07-04T08:12:01;24.50;99.90
40291;DHT22;26000;48.304;13.626;2022-07-04T08:14:27;24.50;99.90
40291;DHT22;26000;48.304;13.626;2022-07-04T08:16:54;24.40;99.90
40291;DHT22;26000;48.304;13.626;2022-07-04T08:19:20;24.40;99.90
40291;DHT22;26000;48.304;13.626;2022-07-04T08:21:46;24.30;99.90
40291;DHT22;26000;48.304;13.626;2022-07-04T08:24:14;24.30;99.90
40291;DHT22;26000;48.304;13.626;2022-07-04T08:26:40;24.20;99.90
40291;DHT22;26000;48.304;13.626;2022-07-04T08:29:06;24.50;99.90
40291;DHT22;26000;48.304;13.626;2022-07-04T08:31:44;25.20;99.90
40291;DHT22;26000;48.304;13.626;2022-07-04T08:34:10;25.70;99.90
40291;DHT22;26000;48.304;13.626;2022-07-04T08:36:36;25.90;99.90
40291;DHT22;26000;48.304;13.626;2022-07-04T08:39:01;26.10;99.90
40291;DHT22;26000;48.304;13.626;2022-07-04T08:41:29;26.10;99.90
40291;DHT22;26000;48.304;13.626;2022-07-04T08:43:59;26.40;99.90
40291;DHT22;26000;48.304;13.626;2022-07-04T08:46:26;26.80;99.90
40291;DHT22;26000;48.304;13.626;2022-07-04T08:48:55;27.10;99.90
40291;DHT22;26000;48.304;13.626;2022-07-04T08:51:37;27.40;99.90
40291;DHT22;26000;48.304;13.626;2022-07-04T08:54:07;27.90;99.90
40291;DHT22;26000;48.304;13.626;2022-07-04T08:56:55;28.30;99.90
40291;DHT22;26000;48.304;13.626;2022-07-04T08:59:39;28.70;99.90
40291;DHT22;26000;48.304;13.626;2022-07-04T09:02:06;29.10;99.90
40291;DHT22;26000;48.304;13.626;2022-07-04T09:04:32;29.20;99.90
40291;DHT22;26000;48.304;13.626;2022-07-04T09:06:59;29.10;99.70
40291;DHT22;26000;48.304;13.626;2022-07-04T09:09:25;29.00;99.90
40291;DHT22;26000;48.304;13.626;2022-07-04T09:11:51;28.90;99.90
40291;DHT22;26000;48.304;13.626;2022-07-04T09:14:17;28.70;99.90
40291;DHT22;26000;48.304;13.626;2022-07-04T09:16:43;28.90;99.90
40291;DHT22;26000;48.304;13.626;2022-07-04T09:19:19;29.10;99.90
40291;DHT22;26000;48.304;13.626;2022-07-04T09:21:46;29.40;99.90
40291;DHT22;26000;48.304;13.626;2022-07-04T09:24:13;29.40;99.50
40291;DHT22;26000;48.304;13.626;2022-07-04T09:26:45;29.30;99.90
40291;DHT22;26000;48.304;13.626;2022-07-04T09:29:12;29.60;99.90
40291;DHT22;26000;48.304;13.626;2022-07-04T09:31:38;29.70;99.90
40291;DHT22;26000;48.304;13.626;2022-07-04T09:34:06;29.60;99.90
40291;DHT22;26000;48.304;13.626;2022-07-04T09:36:33;29.50;99.90
40291;DHT22;26000;48.304;13.626;2022-07-04T09:41:35;29.50;99.50
40291;DHT22;26000;48.304;13.626;2022-07-04T09:44:14;29.80;99.90
40291;DHT22;26000;48.304;13.626;2022-07-04T09:46:40;29.60;99.20
40291;DHT22;26000;48.304;13.626;2022-07-04T09:49:05;29.10;99.90
40291;DHT22;26000;48.304;13.626;2022-07-04T09:51:48;28.90;99.90
40291;DHT22;26000;48.304;13.626;2022-07-04T09:56:47;29.10;99.90
40291;DHT22;26000;48.304;13.626;2022-07-04T09:59:13;29.40;99.90
40291;DHT22;26000;48.304;13.626;2022-07-04T10:01:38;29.50;99.90
40291;DHT22;26000;48.304;13.626;2022-07-04T10:04:06;29.80;99.90
40291;DHT22;26000;48.304;13.626;2022-07-04T10:06:33;29.80;99.90
40291;DHT22;26000;48.304;13.626;2022-07-04T10:09:14;30.10;99.90
40291;DHT22;26000;48.304;13.626;2022-07-04T10:11:41;30.00;99.90
40291;DHT22;26000;48.304;13.626;2022-07-04T10:14:09;29.90;99.90
40291;DHT22;26000;48.304;13.626;2022-07-04T10:16:36;29.60;99.90
40291;DHT22;26000;48.304;13.626;2022-07-04T10:19:03;29.40;99.90
40291;DHT22;26000;48.304;13.626;2022-07-04T10:21:29;29.30;99.90
40291;DHT22;26000;48.304;13.626;2022-07-04T10:23:55;29.10;99.90
40291;DHT22;26000;48.304;13.626;2022-07-04T10:26:21;28.80;99.90
40291;DHT22;26000;48.304;13.626;2022-07-04T10:28:50;28.70;99.90
40291;DHT22;26000;48.304;13.626;2022-07-04T10:31:17;28.60;99.90
40291;DHT22;26000;48.304;13.626;2022-07-04T10:33:43;28.60;99.90
40291;DHT22;26000;48.304;13.626;2022-07-04T10:38:50;28.50;99.90
40291;DHT22;26000;48.304;13.626;2022-07-04T10:41:16;28.40;99.90
40291;DHT22;26000;48.304;13.626;2022-07-04T10:43:51;28.50;99.90
40291;DHT22;26000;48.304;13.626;2022-07-04T10:46:35;28.50;99.90
40291;DHT22;26000;48.304;13.626;2022-07-04T10:49:17;28.50;99.90
40291;DHT22;26000;48.304;13.626;2022-07-04T10:56:49;28.40;99.90
40291;DHT22;26000;48.304;13.626;2022-07-04T10:59:21;28.30;99.90
40291;DHT22;26000;48.304;13.626;2022-07-04T11:01:50;28.20;99.90
40291;DHT22;26000;48.304;13.626;2022-07-04T11:18:11;27.40;99.90
40291;DHT22;26000;48.304;13.626;2022-07-04T11:20:44;27.40;99.90
40291;DHT22;26000;48.304;13.626;2022-07-04T11:23:18;27.40;99.90
40291;DHT22;26000;48.304;13.626;2022-07-04T11:25:48;27.30;99.90
40291;DHT22;26000;48.304;13.626;2022-07-04T11:28:27;27.30;99.90
40291;DHT22;26000;48.304;13.626;2022-07-04T11:30:59;27.20;99.90
40291;DHT22;26000;48.304;13.626;2022-07-04T11:33:28;27.20;99.90
40291;DHT22;26000;48.304;13.626;2022-07-04T11:36:04;27.10;99.90
40291;DHT22;26000;48.304;13.626;2022-07-04T11:41:13;26.80;99.90
40291;DHT22;26000;48.304;13.626;2022-07-04T11:43:57;26.80;99.90
40291;DHT22;26000;48.304;13.626;2022-07-04T11:46:41;26.70;99.90
40291;DHT22;26000;48.304;13.626;2022-07-04T11:49:11;26.60;99.90
40291;DHT22;26000;48.304;13.626;2022-07-04T11:51:46;26.50;99.90
40291;DHT22;26000;48.304;13.626;2022-07-04T11:54:11;26.40;99.90
40291;DHT22;26000;48.304;13.626;2022-07-04T11:56:37;26.30;99.90
40291;DHT22;26000;48.304;13.626;2022-07-04T11:59:14;26.30;99.90
40291;DHT22;26000;48.304;13.626;2022-07-04T12:01:44;26.30;99.90
40291;DHT22;26000;48.304;13.626;2022-07-04T12:04:20;26.20;99.90
40291;DHT22;26000;48.304;13.626;2022-07-04T12:06:47;26.10;99.90
40291;DHT22;26000;48.304;13.626;2022-07-04T12:09:14;26.00;99.90
40291;DHT22;26000;48.304;13.626;2022-07-04T12:11:54;25.90;99.90
40291;DHT22;26000;48.304;13.626;2022-07-04T12:14:21;25.80;99.90
40291;DHT22;26000;48.304;13.626;2022-07-04T12:16:46;25.70;99.90
40291;DHT22;26000;48.304;13.626;2022-07-04T12:19:13;25.70;99.90
40291;DHT22;26000;48.304;13.626;2022-07-04T12:21:39;25.50;99.90
40291;DHT22;26000;48.304;13.626;2022-07-04T12:24:05;25.40;99.90
40291;DHT22;26000;48.304;13.626;2022-07-04T12:26:31;25.40;99.90
40291;DHT22;26000;48.304;13.626;2022-07-04T12:28:57;25.40;99.90
40291;DHT22;26000;48.304;13.626;2022-07-04T12:31:40;25.40;99.90
40291;DHT22;26000;48.304;13.626;2022-07-04T12:34:16;25.40;99.90
40291;DHT22;26000;48.304;13.626;2022-07-04T12:36:55;25.50;99.90
40291;DHT22;26000;48.304;13.626;2022-07-04T12:39:36;25.40;99.90
40291;DHT22;26000;48.304;13.626;2022-07-04T12:42:16;25.40;99.90
40291;DHT22;26000;48.304;13.626;2022-07-04T12:44:44;25.40;99.90
40291;DHT22;26000;48.304;13.626;2022-07-04T12:47:11;25.40;99.90
40291;DHT22;26000;48.304;13.626;2022-07-04T12:49:41;25.40;99.90
40291;DHT22;26000;48.304;13.626;2022-07-04T12:52:17;25.50;99.90
40291;DHT22;26000;48.304;13.626;2022-07-04T12:54:44;25.50;99.90
40291;DHT22;26000;48.304;13.626;2022-07-04T12:57:26;25.60;99.90
40291;DHT22;26000;48.304;13.626;2022-07-04T12:59:52;25.60;99.90
40291;DHT22;26000;48.304;13.626;2022-07-04T13:02:17;25.50;99.90
40291;DHT22;26000;48.304;13.626;2022-07-04T13:04:43;25.60;99.90
40291;DHT22;26000;48.304;13.626;2022-07-04T13:07:14;25.60;99.90
40291;DHT22;26000;48.304;13.626;2022-07-04T13:09:41;25.70;99.90
40291;DHT22;26000;48.304;13.626;2022-07-04T13:12:07;25.80;99.90
40291;DHT22;26000;48.304;13.626;2022-07-04T13:14:52;25.90;99.90
40291;DHT22;26000;48.304;13.626;2022-07-04T13:17:18;26.00;99.90
40291;DHT22;26000;48.304;13.626;2022-07-04T13:19:44;26.10;99.90
40291;DHT22;26000;48.304;13.626;2022-07-04T13:22:10;26.20;99.90
40291;DHT22;26000;48.304;13.626;2022-07-04T13:24:35;26.30;99.90
40291;DHT22;26000;48.304;13.626;2022-07-04T13:27:01;26.40;99.90
40291;DHT22;26000;48.304;13.626;2022-07-04T13:29:27;26.50;99.90
40291;DHT22;26000;48.304;13.626;2022-07-04T13:31:53;26.60;99.90
40291;DHT22;26000;48.304;13.626;2022-07-04T13:34:18;26.70;99.90
40291;DHT22;26000;48.304;13.626;2022-07-04T13:36:44;26.90;99.90
40291;DHT22;26000;48.304;13.626;2022-07-04T13:39:11;26.70;99.90
40291;DHT22;26000;48.304;13.626;2022-07-04T13:41:37;26.70;99.90
40291;DHT22;26000;48.304;13.626;2022-07-04T13:44:05;26.70;99.90
40291;DHT22;26000;48.304;13.626;2022-07-04T13:46:31;26.80;99.90
40291;DHT22;26000;48.304;13.626;2022-07-04T13:49:01;26.90;99.90
40291;DHT22;26000;48.304;13.626;2022-07-04T13:51:27;26.90;99.90
40291;DHT22;26000;48.304;13.626;2022-07-04T13:53:52;26.90;99.90
40291;DHT22;26000;48.304;13.626;2022-07-04T13:56:18;26.80;99.90
40291;DHT22;26000;48.304;13.626;2022-07-04T13:58:44;26.80;99.90
40291;DHT22;26000;48.304;13.626;2022-07-04T14:01:10;26.80;99.90
40291;DHT22;26000;48.304;13.626;2022-07-04T14:03:36;26.70;99.90
40291;DHT22;26000;48.304;13.626;2022-07-04T14:06:02;26.80;99.90
40291;DHT22;26000;48.304;13.626;2022-07-04T14:08:28;26.90;99.90
40291;DHT22;26000;48.304;13.626;2022-07-04T14:10:54;26.90;99.90
40291;DHT22;26000;48.304;13.626;2022-07-04T14:13:20;26.80;99.90
40291;DHT22;26000;48.304;13.626;2022-07-04T14:15:45;27.00;99.90
40291;DHT22;26000;48.304;13.626;2022-07-04T14:18:11;26.90;99.90
40291;DHT22;26000;48.304;13.626;2022-07-04T14:20:40;26.80;99.90
40291;DHT22;26000;48.304;13.626;2022-07-04T14:23:06;26.80;99.90
40291;DHT22;26000;48.304;13.626;2022-07-04T14:25:32;26.70;99.60
40291;DHT22;26000;48.304;13.626;2022-07-04T14:27:57;26.80;99.90
40291;DHT22;26000;48.304;13.626;2022-07-04T14:30:23;26.90;99.90
40291;DHT22;26000;48.304;13.626;2022-07-04T14:32:49;26.90;99.10
40291;DHT22;26000;48.304;13.626;2022-07-04T14:35:16;27.00;99.80
40291;DHT22;26000;48.304;13.626;2022-07-04T14:37:42;27.10;98.90
40291;DHT22;26000;48.304;13.626;2022-07-04T14:40:08;27.00;99.90
40291;DHT22;26000;48.304;13.626;2022-07-04T14:42:34;27.10;99.90
40291;DHT22;26000;48.304;13.626;2022-07-04T14:45:00;27.10;99.90
40291;DHT22;26000;48.304;13.626;2022-07-04T14:47:25;27.10;99.60
40291;DHT22;26000;48.304;13.626;2022-07-04T14:49:51;27.10;99.00
40291;DHT22;26000;48.304;13.626;2022-07-04T14:52:17;27.10;99.70
40291;DHT22;26000;48.304;13.626;2022-07-04T14:54:42;27.20;99.40
40291;DHT22;26000;48.304;13.626;2022-07-04T14:57:08;27.10;99.60
40291;DHT22;26000;48.304;13.626;2022-07-04T14:59:34;27.20;99.00
40291;DHT22;26000;48.304;13.626;2022-07-04T15:02:04;27.20;98.40
40291;DHT22;26000;48.304;13.626;2022-07-04T15:04:30;27.30;98.70
40291;DHT22;26000;48.304;13.626;2022-07-04T15:06:56;27.20;98.80
40291;DHT22;26000;48.304;13.626;2022-07-04T15:09:27;27.20;99.10
40291;DHT22;26000;48.304;13.626;2022-07-04T15:11:56;27.10;99.20
40291;DHT22;26000;48.304;13.626;2022-07-04T15:14:22;27.10;99.70
40291;DHT22;26000;48.304;13.626;2022-07-04T15:16:49;27.10;99.90
40291;DHT22;26000;48.304;13.626;2022-07-04T15:19:14;27.00;99.30
40291;DHT22;26000;48.304;13.626;2022-07-04T15:21:41;27.00;99.90
40291;DHT22;26000;48.304;13.626;2022-07-04T15:24:25;27.00;99.60
40291;DHT22;26000;48.304;13.626;2022-07-04T15:26:51;27.00;99.90
40291;DHT22;26000;48.304;13.626;2022-07-04T15:29:21;26.90;99.70
40291;DHT22;26000;48.304;13.626;2022-07-04T15:31:48;27.00;99.80
40291;DHT22;26000;48.304;13.626;2022-07-04T15:34:19;26.90;99.80
40291;DHT22;26000;48.304;13.626;2022-07-04T15:36:45;26.90;99.50
40291;DHT22;26000;48.304;13.626;2022-07-04T15:39:13;26.90;99.70
40291;DHT22;26000;48.304;13.626;2022-07-04T15:41:40;26.80;99.90
40291;DHT22;26000;48.304;13.626;2022-07-04T15:44:06;26.70;99.60
40291;DHT22;26000;48.304;13.626;2022-07-04T15:46:32;26.70;99.90